createdAt,value
2018-01-23T00:00:29.562Z,16.90
2018-01-23T00:02:57.812Z,15.53
2018-01-23T00:05:26.811Z,18.47
2018-01-23T00:07:55.108Z,20.20
2018-01-23T00:10:23.357Z,14.93
2018-01-23T00:12:51.815Z,18.60
2018-01-23T00:15:20.248Z,24.03
2018-01-23T00:17:48.570Z,17.60
2018-01-23T00:20:16.774Z,28.87
2018-01-23T00:22:45.032Z,20.40
2018-01-23T00:25:14.034Z,15.90
2018-01-23T00:27:42.319Z,16.60
2018-01-23T00:30:10.698Z,17.47
2018-01-23T00:32:38.949Z,13.90
2018-01-23T00:35:07.180Z,18.63
2018-01-23T00:37:35.599Z,27.53
2018-01-23T00:40:04.034Z,23.20
2018-01-23T00:42:32.270Z,17.47
2018-01-23T00:45:00.805Z,17.63
2018-01-23T00:47:29.080Z,20.90
2018-01-23T00:49:57.318Z,24.07
2018-01-23T00:52:26.352Z,23.90
2018-01-23T00:54:54.609Z,27.90
2018-01-23T00:57:22.935Z,19.20
2018-01-23T00:59:51.152Z,23.00
2018-01-23T01:02:19.393Z,23.03
2018-01-23T01:04:48.482Z,25.80
2018-01-23T01:07:16.688Z,23.23
2018-01-23T01:09:46.002Z,17.67
2018-01-23T01:12:14.243Z,21.00
2018-01-23T01:14:43.431Z,19.93
2018-01-23T01:17:11.913Z,18.50
2018-01-23T01:19:40.941Z,19.33
2018-01-23T01:22:09.204Z,21.33
2018-01-23T01:24:37.728Z,17.90
2018-01-23T01:27:05.970Z,20.00
2018-01-23T01:29:34.319Z,20.73
2018-01-23T01:32:04.398Z,27.57
2018-01-23T01:34:32.865Z,25.53
2018-01-23T01:37:01.108Z,25.10
2018-01-23T01:39:30.130Z,17.90
2018-01-23T01:41:58.404Z,19.53
2018-01-23T01:44:26.680Z,22.63
2018-01-23T01:46:54.997Z,17.00
2018-01-23T01:49:23.267Z,19.43
2018-01-23T01:51:52.536Z,20.23
2018-01-23T01:54:20.777Z,24.03
2018-01-23T01:56:49.049Z,20.20
2018-01-23T01:59:17.368Z,18.17
2018-01-23T02:01:45.628Z,22.67
2018-01-23T02:04:13.870Z,28.23
2018-01-23T02:06:42.144Z,22.13
2018-01-23T02:09:11.172Z,23.37
2018-01-23T02:11:39.429Z,22.03
2018-01-23T02:14:08.472Z,20.60
2018-01-23T02:16:36.720Z,19.80
2018-01-23T02:19:05.129Z,17.53
2018-01-23T02:21:33.422Z,19.87
2018-01-23T02:24:01.674Z,22.00
2018-01-23T02:26:29.961Z,24.27
2018-01-23T02:28:58.232Z,20.00
2018-01-23T02:31:26.485Z,20.23
2018-01-23T02:33:54.754Z,18.23
2018-01-23T02:36:23.137Z,24.37
2018-01-23T02:38:51.430Z,29.97
2018-01-23T02:41:19.744Z,21.50
2018-01-23T02:43:48.010Z,27.50
2018-01-23T02:46:16.293Z,27.90
2018-01-23T02:48:44.540Z,23.93
2018-01-23T02:51:12.793Z,15.37
2018-01-23T02:53:41.102Z,27.50
2018-01-23T02:56:09.389Z,20.80
2018-01-23T02:58:37.661Z,25.30
2018-01-23T03:01:05.956Z,20.40
2018-01-23T03:03:34.568Z,21.37
2018-01-23T03:06:02.817Z,24.97
2018-01-23T03:08:31.874Z,23.80
2018-01-23T03:11:00.151Z,20.23
2018-01-23T03:13:28.478Z,26.00
2018-01-23T03:15:56.747Z,19.17
2018-01-23T03:18:25.008Z,20.80
2018-01-23T03:20:53.283Z,21.80
2018-01-23T03:23:21.529Z,23.17
2018-01-23T03:25:49.800Z,29.07
2018-01-23T03:28:18.140Z,23.30
2018-01-23T03:30:46.561Z,21.33
2018-01-23T03:33:14.816Z,23.03
2018-01-23T03:35:44.059Z,27.83
2018-01-23T03:38:12.932Z,29.70
2018-01-23T03:40:41.227Z,22.30
2018-01-23T03:43:09.486Z,28.30
2018-01-23T03:45:37.767Z,25.50
2018-01-23T03:48:06.017Z,20.70
2018-01-23T03:50:34.268Z,22.10
2018-01-23T03:53:02.538Z,22.03
2018-01-23T03:55:32.075Z,23.47
2018-01-23T03:58:00.343Z,33.03
2018-01-23T04:00:28.604Z,20.70
2018-01-23T04:02:56.872Z,20.30
2018-01-23T04:05:25.143Z,26.10
2018-01-23T04:07:53.390Z,16.60
2018-01-23T04:10:21.645Z,23.33
2018-01-23T04:12:49.912Z,27.40
2018-01-23T04:15:18.460Z,20.80
2018-01-23T04:17:46.785Z,26.63
2018-01-23T04:20:15.785Z,25.27
2018-01-23T04:22:44.060Z,26.97
2018-01-23T04:25:12.312Z,26.00
2018-01-23T04:27:40.817Z,26.07
2018-01-23T04:30:09.054Z,22.00
2018-01-23T04:32:38.245Z,24.80
2018-01-23T04:35:06.580Z,18.37
2018-01-23T04:37:34.783Z,25.30
2018-01-23T04:40:03.218Z,24.70
2018-01-23T04:42:32.196Z,24.27
2018-01-23T04:45:01.381Z,22.60
2018-01-23T04:47:29.692Z,21.30
2018-01-23T04:49:57.988Z,19.53
2018-01-23T04:52:26.261Z,21.70
2018-01-23T04:54:54.526Z,22.40
2018-01-23T04:57:22.824Z,19.40
2018-01-23T04:59:51.102Z,24.90
2018-01-23T05:02:19.395Z,25.67
2018-01-23T05:04:48.423Z,21.47
2018-01-23T05:07:16.707Z,14.50
2018-01-23T05:09:44.992Z,24.50
2018-01-23T05:12:13.233Z,20.70
2018-01-23T05:14:41.904Z,21.20
2018-01-23T05:17:10.120Z,16.20
2018-01-23T05:19:38.380Z,16.20
2018-01-23T05:22:06.644Z,31.43
2018-01-23T05:24:35.911Z,17.43
2018-01-23T05:27:04.117Z,16.40
2018-01-23T05:29:32.406Z,18.67
2018-01-23T05:32:00.717Z,25.27
2018-01-23T05:34:29.876Z,18.47
2018-01-23T05:36:58.233Z,17.57
2018-01-23T05:39:26.510Z,20.00
2018-01-23T05:41:54.752Z,16.20
2018-01-23T05:44:23.081Z,18.17
2018-01-23T05:46:52.089Z,17.03
2018-01-23T05:49:20.435Z,26.87
2018-01-23T05:51:48.846Z,15.17
2018-01-23T05:54:17.100Z,19.10
2018-01-23T05:56:45.408Z,16.80
2018-01-23T05:59:13.680Z,21.37
2018-01-23T06:01:41.968Z,18.20
2018-01-23T06:04:10.212Z,19.67
2018-01-23T06:06:38.626Z,27.20
2018-01-23T06:09:06.863Z,17.43
2018-01-23T06:11:35.893Z,15.50
2018-01-23T06:14:04.921Z,22.43
2018-01-23T06:16:33.340Z,20.50
2018-01-23T06:19:01.618Z,18.80
2018-01-23T06:21:29.920Z,20.13
2018-01-23T06:23:58.196Z,27.80
2018-01-23T06:26:26.436Z,22.00
2018-01-23T06:28:54.753Z,22.63
2018-01-23T06:31:23.033Z,24.47
2018-01-23T06:33:51.305Z,23.47
2018-01-23T06:36:19.594Z,18.73
2018-01-23T06:38:47.876Z,18.17
2018-01-23T06:41:16.332Z,18.93
2018-01-23T06:43:44.596Z,22.17
2018-01-23T06:46:13.044Z,17.20
2018-01-23T06:48:42.103Z,22.30
2018-01-23T06:51:10.358Z,17.60
2018-01-23T06:53:38.935Z,25.43
2018-01-23T06:56:07.220Z,16.80
2018-01-23T06:58:35.477Z,19.57
2018-01-23T07:01:03.760Z,20.80
2018-01-23T07:03:31.992Z,21.17
2018-01-23T07:06:00.290Z,20.63
2018-01-23T07:08:28.558Z,17.83
2018-01-23T07:10:56.784Z,15.03
2018-01-23T07:13:25.053Z,18.83
2018-01-23T07:15:53.309Z,12.73
2018-01-23T07:18:21.596Z,20.37
2018-01-23T07:20:49.876Z,13.87
2018-01-23T07:23:18.368Z,17.90
2018-01-23T07:25:46.670Z,13.23
2018-01-23T07:28:15.046Z,25.43
2018-01-23T07:30:43.318Z,22.20
2018-01-23T07:33:11.557Z,16.53
2018-01-23T07:35:39.949Z,15.90
2018-01-23T07:38:08.184Z,16.83
2018-01-23T07:40:37.204Z,23.17
2018-01-23T07:43:05.478Z,16.33
2018-01-23T07:45:33.735Z,19.47
2018-01-23T07:48:02.045Z,17.10
2018-01-23T07:50:30.330Z,19.37
2018-01-23T07:52:58.568Z,18.60
2018-01-23T07:55:27.802Z,16.93
2018-01-23T07:57:56.054Z,20.73
2018-01-23T08:00:25.069Z,19.87
2018-01-23T08:02:53.365Z,17.77
2018-01-23T08:05:21.624Z,18.70
2018-01-23T08:07:49.893Z,17.27
2018-01-23T08:10:18.197Z,20.17
2018-01-23T08:12:46.505Z,17.87
2018-01-23T08:15:14.777Z,19.90
2018-01-23T08:17:43.009Z,32.37
2018-01-23T08:20:11.264Z,19.83
2018-01-23T08:22:39.528Z,21.67
2018-01-23T08:25:07.788Z,21.03
2018-01-23T08:27:36.811Z,16.97
2018-01-23T08:30:05.091Z,17.30
2018-01-23T08:32:33.366Z,21.63
2018-01-23T08:35:01.758Z,15.67
2018-01-23T08:37:30.060Z,18.70
2018-01-23T08:39:58.269Z,17.43
2018-01-23T08:42:27.304Z,19.43
2018-01-23T08:44:55.582Z,19.03
2018-01-23T08:47:23.841Z,16.77
2018-01-23T08:49:52.265Z,17.50
2018-01-23T08:52:20.523Z,21.80
2018-01-23T08:54:48.785Z,21.87
2018-01-23T08:57:17.060Z,11.57
2018-01-23T08:59:45.332Z,17.40
2018-01-23T09:02:13.623Z,21.40
2018-01-23T09:04:41.901Z,18.20
2018-01-23T09:07:10.152Z,17.60
2018-01-23T09:09:38.421Z,13.87
2018-01-23T09:12:06.684Z,13.43
2018-01-23T09:14:35.680Z,14.43
2018-01-23T09:17:04.433Z,16.83
2018-01-23T09:19:32.699Z,23.47
2018-01-23T09:22:01.793Z,16.30
2018-01-23T09:24:30.181Z,13.70
2018-01-23T09:26:58.425Z,15.73
2018-01-23T09:29:26.701Z,19.93
2018-01-23T09:31:54.953Z,13.20
2018-01-23T09:34:24.301Z,11.17
2018-01-23T09:36:52.564Z,15.63
2018-01-23T09:39:20.825Z,19.10
2018-01-23T09:41:49.102Z,11.60
2018-01-23T09:44:17.377Z,13.27
2018-01-23T09:46:45.630Z,15.70
2018-01-23T09:49:14.641Z,13.10
2018-01-23T09:51:43.021Z,15.13
2018-01-23T09:54:11.281Z,11.63
2018-01-23T09:56:40.533Z,11.83
2018-01-23T09:59:08.801Z,11.57
2018-01-23T10:01:37.226Z,10.47
2018-01-23T10:04:06.248Z,23.17
2018-01-23T10:06:34.494Z,14.00
2018-01-23T10:09:02.740Z,14.70
2018-01-23T10:11:31.194Z,26.60
2018-01-23T10:13:59.443Z,21.87
2018-01-23T10:16:28.312Z,11.03
2018-01-23T10:18:56.600Z,16.73
2018-01-23T10:21:24.853Z,17.83
2018-01-23T10:23:53.214Z,14.17
2018-01-23T10:26:21.488Z,19.03
2018-01-23T10:28:49.741Z,14.30
2018-01-23T10:31:18.009Z,10.73
2018-01-23T10:33:46.252Z,14.33
2018-01-23T10:36:15.404Z,10.57
2018-01-23T10:38:43.716Z,10.60
2018-01-23T10:41:11.942Z,8.80
2018-01-23T10:43:40.581Z,11.53
2018-01-23T10:46:08.834Z,11.47
2018-01-23T10:48:37.052Z,8.70
2018-01-23T10:51:06.816Z,15.57
2018-01-23T10:53:35.150Z,7.53
2018-01-23T10:56:03.388Z,10.67
2018-01-23T10:58:31.675Z,15.50
2018-01-23T11:01:05.818Z,14.53
2018-01-23T11:03:34.079Z,12.50
2018-01-23T11:06:03.063Z,8.30
2018-01-23T11:08:31.334Z,10.00
2018-01-23T11:11:01.069Z,13.97
2018-01-23T11:13:29.340Z,7.10
2018-01-23T11:15:57.573Z,9.10
2018-01-23T11:18:25.967Z,11.73
2018-01-23T11:20:54.179Z,6.20
2018-01-23T11:23:22.512Z,9.13
2018-01-23T11:25:50.900Z,9.93
2018-01-23T11:28:19.114Z,6.60
2018-01-23T11:30:47.382Z,9.80
2018-01-23T11:33:16.457Z,5.33
2018-01-23T11:35:45.469Z,9.87
2018-01-23T11:38:13.729Z,10.70
2018-01-23T11:40:42.003Z,7.77
2018-01-23T11:43:10.232Z,9.33
2018-01-23T11:45:38.571Z,12.90
2018-01-23T11:48:06.861Z,5.17
2018-01-23T11:50:35.106Z,6.80
2018-01-23T11:53:03.402Z,7.30
2018-01-23T11:55:31.659Z,11.10
2018-01-23T11:58:01.412Z,7.90
2018-01-23T12:00:30.261Z,7.00
2018-01-23T12:02:58.551Z,7.50
2018-01-23T12:05:26.765Z,6.90
2018-01-23T12:07:55.084Z,13.00
2018-01-23T12:10:23.350Z,3.77
2018-01-23T12:12:52.493Z,9.30
2018-01-23T12:15:20.755Z,10.23
2018-01-23T12:17:48.998Z,5.43
2018-01-23T12:20:17.248Z,8.70
2018-01-23T12:22:45.564Z,8.80
2018-01-23T12:25:13.946Z,8.70
2018-01-23T12:27:42.156Z,8.73
2018-01-23T12:30:10.418Z,6.63
2018-01-23T12:32:39.485Z,8.17
2018-01-23T12:35:07.778Z,13.07
2018-01-23T12:37:36.012Z,6.50
2018-01-23T12:40:04.269Z,9.30
2018-01-23T12:42:32.635Z,5.43
2018-01-23T12:45:00.918Z,8.93
2018-01-23T12:47:29.216Z,15.23
2018-01-23T12:49:57.666Z,5.20
2018-01-23T12:52:26.115Z,24.87
2018-01-23T12:54:54.544Z,6.00
2018-01-23T12:57:22.754Z,6.97
2018-01-23T12:59:51.031Z,3.40
2018-01-23T13:02:19.259Z,5.00
2018-01-23T13:04:47.587Z,9.83
2018-01-23T13:07:15.826Z,6.73
2018-01-23T13:09:44.079Z,7.60
2018-01-23T13:12:13.110Z,6.30
2018-01-23T13:14:42.120Z,7.93
2018-01-23T13:17:10.348Z,5.80
2018-01-23T13:19:38.685Z,5.97
2018-01-23T13:22:07.004Z,6.97
2018-01-23T13:24:35.239Z,9.83
2018-01-23T13:27:03.743Z,5.20
2018-01-23T13:29:32.014Z,5.60
2018-01-23T13:32:01.033Z,4.27
2018-01-23T13:34:29.612Z,8.77
2018-01-23T13:36:57.939Z,8.00
2018-01-23T13:39:26.296Z,7.77
2018-01-23T13:41:54.533Z,6.57
2018-01-23T13:44:26.896Z,6.80
2018-01-23T13:46:55.452Z,5.37
2018-01-23T13:49:23.735Z,6.37
2018-01-23T13:51:54.015Z,6.00
2018-01-23T13:54:22.278Z,4.87
2018-01-23T13:56:50.544Z,11.57
2018-01-23T13:59:18.814Z,4.40
2018-01-23T14:01:48.565Z,6.27
2018-01-23T14:04:16.815Z,6.00
2018-01-23T14:06:45.827Z,6.63
2018-01-23T14:09:14.059Z,6.40
2018-01-23T14:11:42.556Z,12.70
2018-01-23T14:14:10.943Z,4.40
2018-01-23T14:16:39.416Z,4.73
2018-01-23T14:19:07.687Z,7.73
2018-01-23T14:21:36.034Z,7.00
2018-01-23T14:24:04.272Z,8.33
2018-01-23T14:26:32.568Z,7.40
2018-01-23T14:29:00.827Z,4.80
2018-01-23T14:31:29.117Z,7.27
2018-01-23T14:33:57.397Z,4.77
2018-01-23T14:36:25.635Z,6.60
2018-01-23T14:38:53.931Z,7.10
2018-01-23T14:41:22.192Z,3.53
2018-01-23T14:43:50.440Z,7.83
2018-01-23T14:46:19.437Z,4.80
2018-01-23T14:48:47.684Z,3.50
2018-01-23T14:51:15.921Z,4.77
2018-01-23T14:53:44.201Z,5.13
2018-01-23T14:56:12.518Z,7.03
2018-01-23T14:58:40.794Z,4.43
2018-01-23T15:01:09.797Z,3.30
2018-01-23T15:03:38.804Z,4.80
2018-01-23T15:06:07.230Z,4.30
2018-01-23T15:08:35.620Z,4.20
2018-01-23T15:11:04.017Z,6.23
2018-01-23T15:13:32.266Z,8.17
2018-01-23T15:16:00.550Z,8.97
2018-01-23T15:18:29.561Z,5.50
2018-01-23T15:20:57.816Z,2.17
2018-01-23T15:23:26.049Z,5.87
2018-01-23T15:25:54.296Z,8.50
2018-01-23T15:28:22.547Z,8.53
2018-01-23T15:30:50.827Z,3.00
2018-01-23T15:33:19.129Z,2.70
2018-01-23T15:35:47.364Z,3.70
2018-01-23T15:38:15.639Z,5.70
2018-01-23T15:40:43.916Z,3.83
2018-01-23T15:43:12.170Z,6.30
2018-01-23T15:45:40.704Z,4.67
2018-01-23T15:48:08.925Z,10.00
2018-01-23T15:50:37.188Z,5.53
2018-01-23T15:53:05.444Z,8.50
2018-01-23T15:55:34.448Z,7.50
2018-01-23T15:58:02.712Z,3.10
2018-01-23T16:00:30.983Z,2.93
2018-01-23T16:02:59.263Z,2.53
2018-01-23T16:05:27.534Z,6.90
2018-01-23T16:07:56.624Z,5.67
2018-01-23T16:10:24.841Z,3.90
2018-01-23T16:12:53.222Z,4.80
2018-01-23T16:15:21.464Z,4.20
2018-01-23T16:17:50.356Z,5.90
2018-01-23T16:20:18.673Z,7.33
2018-01-23T16:22:46.908Z,6.07
2018-01-23T16:25:15.172Z,6.57
2018-01-23T16:27:44.281Z,4.90
2018-01-23T16:30:12.564Z,2.87
2018-01-23T16:32:40.805Z,5.00
2018-01-23T16:35:09.070Z,7.57
2018-01-23T16:37:37.587Z,7.20
2018-01-23T16:40:07.317Z,5.10
2018-01-23T16:42:35.736Z,3.97
2018-01-23T16:45:03.936Z,3.77
2018-01-23T16:47:32.989Z,3.67
2018-01-23T16:50:01.227Z,6.60
2018-01-23T16:52:31.182Z,5.90
2018-01-23T16:54:59.420Z,7.13
2018-01-23T16:57:28.442Z,5.03
2018-01-23T16:59:56.915Z,3.13
2018-01-23T17:02:25.152Z,6.40
2018-01-23T17:04:53.420Z,3.03
2018-01-23T17:07:22.441Z,1.93
2018-01-23T17:09:51.481Z,4.20
2018-01-23T17:12:19.757Z,3.53
2018-01-23T17:14:48.027Z,2.70
2018-01-23T17:17:17.209Z,6.17
2018-01-23T17:19:45.545Z,3.70
2018-01-23T17:22:13.798Z,8.53
2018-01-23T17:24:42.037Z,6.53
2018-01-23T17:27:10.951Z,7.00
2018-01-23T17:29:39.216Z,5.13
2018-01-23T17:32:07.488Z,4.33
2018-01-23T17:34:35.768Z,7.10
2018-01-23T17:37:04.025Z,2.90
2018-01-23T17:39:33.016Z,6.03
2018-01-23T17:42:01.279Z,3.97
2018-01-23T17:44:29.532Z,7.13
2018-01-23T17:46:57.833Z,4.00
2018-01-23T17:49:26.105Z,3.00
2018-01-23T17:51:54.332Z,6.73
2018-01-23T17:54:22.644Z,3.70
2018-01-23T17:56:50.898Z,3.30
2018-01-23T17:59:19.146Z,5.63
2018-01-23T18:01:47.415Z,4.23
2018-01-23T18:04:15.654Z,2.83
2018-01-23T18:06:43.913Z,8.77
2018-01-23T18:09:12.144Z,3.13
2018-01-23T18:11:40.423Z,5.27
2018-01-23T18:14:08.682Z,3.27
2018-01-23T18:16:36.936Z,6.27
2018-01-23T18:19:05.984Z,2.33
2018-01-23T18:21:34.239Z,3.77
2018-01-23T18:24:02.538Z,4.17
2018-01-23T18:26:30.760Z,6.47
2018-01-23T18:28:59.097Z,3.80
2018-01-23T18:31:27.342Z,6.93
2018-01-23T18:33:55.680Z,4.40
2018-01-23T18:36:23.905Z,3.67
2018-01-23T18:38:52.200Z,3.77
2018-01-23T18:41:20.481Z,7.10
2018-01-23T18:43:48.792Z,2.63
2018-01-23T18:46:17.098Z,3.87
2018-01-23T18:48:46.289Z,2.50
2018-01-23T18:51:14.554Z,3.00
2018-01-23T18:53:43.553Z,4.93
2018-01-23T18:56:11.806Z,4.17
2018-01-23T18:58:40.049Z,4.73
2018-01-23T19:01:08.317Z,3.37
2018-01-23T19:03:38.271Z,4.20
2018-01-23T19:06:06.504Z,3.80
2018-01-23T19:08:34.833Z,6.43
2018-01-23T19:11:03.058Z,3.17
2018-01-23T19:13:31.305Z,6.00
2018-01-23T19:15:59.576Z,3.90
2018-01-23T19:18:28.756Z,3.30
2018-01-23T19:20:57.094Z,5.53
2018-01-23T19:23:25.389Z,3.63
2018-01-23T19:25:53.660Z,4.80
2018-01-23T19:28:21.905Z,3.57
2018-01-23T19:30:50.145Z,5.40
2018-01-23T19:33:18.461Z,3.97
2018-01-23T19:35:46.837Z,3.60
2018-01-23T19:38:15.176Z,7.60
2018-01-23T19:40:44.045Z,5.97
2018-01-23T19:43:12.289Z,3.90
2018-01-23T19:45:40.549Z,4.27
2018-01-23T19:48:10.012Z,4.50
2018-01-23T19:50:38.902Z,5.40
2018-01-23T19:53:07.387Z,3.40
2018-01-23T19:55:36.889Z,3.03
2018-01-23T19:58:05.478Z,8.50
2018-01-23T20:00:36.156Z,8.50
2018-01-23T20:03:05.293Z,4.70
2018-01-23T20:05:33.987Z,3.63
2018-01-23T20:08:02.683Z,4.63
2018-01-23T20:10:32.966Z,4.17
2018-01-23T20:13:01.892Z,7.20
2018-01-23T20:15:30.761Z,7.13
2018-01-23T20:18:00.053Z,2.33
2018-01-23T20:20:28.766Z,2.13
2018-01-23T20:22:57.064Z,4.57
2018-01-23T20:25:25.490Z,3.10
2018-01-23T20:27:53.727Z,2.27
2018-01-23T20:30:21.983Z,3.80
2018-01-23T20:32:50.887Z,3.20
2018-01-23T20:35:19.114Z,3.53
2018-01-23T20:37:47.531Z,3.27
2018-01-23T20:40:15.786Z,2.67
2018-01-23T20:42:44.020Z,5.40
2018-01-23T20:45:13.170Z,4.50
2018-01-23T20:47:43.202Z,2.73
2018-01-23T20:50:12.298Z,2.50
2018-01-23T20:52:41.320Z,2.67
2018-01-23T20:55:09.735Z,4.87
2018-01-23T20:57:38.699Z,3.80
2018-01-23T21:00:06.959Z,5.70
2018-01-23T21:02:35.206Z,3.30
2018-01-23T21:05:03.488Z,5.27
2018-01-23T21:07:32.833Z,4.50
2018-01-23T21:10:01.097Z,3.50
2018-01-23T21:12:29.392Z,3.20
2018-01-23T21:14:57.629Z,4.27
2018-01-23T21:17:26.078Z,3.77
2018-01-23T21:19:54.309Z,7.97
2018-01-23T21:22:23.371Z,4.87
2018-01-23T21:24:52.456Z,3.97
2018-01-23T21:27:20.845Z,3.70
2018-01-23T21:29:49.107Z,10.03
2018-01-23T21:32:18.113Z,4.07
2018-01-23T21:34:47.328Z,5.77
2018-01-23T21:37:15.742Z,2.77
2018-01-23T21:39:44.137Z,3.33
2018-01-23T21:42:12.401Z,2.77
2018-01-23T21:44:40.710Z,3.43
2018-01-23T21:47:08.955Z,4.77
2018-01-23T21:49:37.646Z,6.33
2018-01-23T21:52:06.130Z,6.57
2018-01-23T21:54:34.403Z,2.97
2018-01-23T21:57:02.664Z,4.93
2018-01-23T21:59:31.153Z,3.10
2018-01-23T22:01:59.409Z,3.33
2018-01-23T22:04:27.634Z,3.80
2018-01-23T22:06:56.073Z,2.50
2018-01-23T22:09:24.316Z,3.30
2018-01-23T22:11:52.542Z,2.50
2018-01-23T22:14:21.000Z,6.30
2018-01-23T22:16:49.238Z,2.77
2018-01-23T22:19:18.265Z,3.20
2018-01-23T22:21:46.597Z,6.00
2018-01-23T22:24:14.834Z,3.90
2018-01-23T22:26:43.456Z,2.97
2018-01-23T22:29:11.694Z,3.30
2018-01-23T22:31:39.968Z,4.13
2018-01-23T22:34:09.060Z,2.70
2018-01-23T22:36:37.351Z,4.40
2018-01-23T22:39:05.621Z,2.77
2018-01-23T22:41:33.877Z,2.60
2018-01-23T22:44:02.530Z,2.53
2018-01-23T22:46:31.686Z,4.87
2018-01-23T22:48:59.934Z,4.90
2018-01-23T22:51:28.365Z,2.23
2018-01-23T22:53:56.649Z,2.30
2018-01-23T22:56:24.882Z,2.40
2018-01-23T22:58:53.374Z,2.03
2018-01-23T23:01:21.706Z,2.57
2018-01-23T23:03:49.996Z,2.00
2018-01-23T23:06:18.594Z,1.20
2018-01-23T23:08:46.929Z,2.10
2018-01-23T23:11:15.195Z,2.00
2018-01-23T23:13:43.436Z,3.13
2018-01-23T23:16:11.733Z,1.67
2018-01-23T23:18:40.046Z,2.50
2018-01-23T23:21:08.272Z,3.00
2018-01-23T23:23:36.530Z,1.70
2018-01-23T23:26:04.772Z,2.53
2018-01-23T23:28:33.891Z,1.70
2018-01-23T23:31:02.282Z,2.57
2018-01-23T23:33:30.529Z,1.77
2018-01-23T23:35:58.762Z,1.53
2018-01-23T23:38:27.789Z,1.70
2018-01-23T23:40:56.810Z,1.63
2018-01-23T23:43:25.264Z,1.83
2018-01-23T23:45:54.031Z,1.70
2018-01-23T23:48:22.252Z,2.23
2018-01-23T23:50:50.509Z,1.40
2018-01-23T23:53:19.732Z,3.43
2018-01-23T23:55:48.725Z,1.60
2018-01-23T23:58:16.966Z,3.03
